sensor_id;sensor_type;location;lat;lon;timestamp;P1;durP1;ratioP1;P2;durP2;ratioP2
51686;SDS011;37774;52.192;4.584;2022-07-03T00:02:23;4.13;;;2.35;;
51686;SDS011;37774;52.192;4.584;2022-07-03T00:04:50;4.63;;;2.63;;
51686;SDS011;37774;52.192;4.584;2022-07-03T00:07:17;4.18;;;2.70;;
51686;SDS011;37774;52.192;4.584;2022-07-03T00:09:44;4.78;;;2.70;;
51686;SDS011;37774;52.192;4.584;2022-07-03T00:12:11;8.50;;;2.88;;
51686;SDS011;37774;52.192;4.584;2022-07-03T00:14:38;8.85;;;2.75;;
51686;SDS011;37774;52.192;4.584;2022-07-03T00:17:06;8.07;;;2.83;;
51686;SDS011;37774;52.192;4.584;2022-07-03T00:19:33;4.55;;;3.03;;
51686;SDS011;37774;52.192;4.584;2022-07-03T00:22:02;6.57;;;3.10;;
51686;SDS011;37774;52.192;4.584;2022-07-03T00:24:32;8.07;;;2.80;;
51686;SDS011;37774;52.192;4.584;2022-07-03T00:27:04;7.70;;;3.90;;
51686;SDS011;37774;52.192;4.584;2022-07-03T00:29:36;9.70;;;4.07;;
51686;SDS011;37774;52.192;4.584;2022-07-03T00:32:06;6.40;;;3.50;;
51686;SDS011;37774;52.192;4.584;2022-07-03T00:34:35;6.85;;;3.70;;
51686;SDS011;37774;52.192;4.584;2022-07-03T00:37:03;7.47;;;4.05;;
51686;SDS011;37774;52.192;4.584;2022-07-03T00:39:34;7.80;;;3.72;;
51686;SDS011;37774;52.192;4.584;2022-07-03T00:42:04;6.22;;;3.58;;
51686;SDS011;37774;52.192;4.584;2022-07-03T00:44:33;6.80;;;3.85;;
51686;SDS011;37774;52.192;4.584;2022-07-03T00:47:02;8.38;;;4.20;;
51686;SDS011;37774;52.192;4.584;2022-07-03T00:49:32;7.18;;;4.20;;
51686;SDS011;37774;52.192;4.584;2022-07-03T00:52:03;11.35;;;4.47;;
51686;SDS011;37774;52.192;4.584;2022-07-03T00:54:32;8.85;;;4.22;;
51686;SDS011;37774;52.192;4.584;2022-07-03T00:57:01;6.93;;;3.97;;
51686;SDS011;37774;52.192;4.584;2022-07-03T00:59:30;12.75;;;4.88;;
51686;SDS011;37774;52.192;4.584;2022-07-03T01:02:01;8.00;;;4.15;;
51686;SDS011;37774;52.192;4.584;2022-07-03T01:04:35;9.55;;;3.10;;
51686;SDS011;37774;52.192;4.584;2022-07-03T01:07:06;14.13;;;3.83;;
51686;SDS011;37774;52.192;4.584;2022-07-03T01:09:41;12.88;;;3.65;;
51686;SDS011;37774;52.192;4.584;2022-07-03T01:12:23;6.70;;;3.28;;
51686;SDS011;37774;52.192;4.584;2022-07-03T01:14:56;7.13;;;3.95;;
51686;SDS011;37774;52.192;4.584;2022-07-03T01:17:32;8.75;;;3.85;;
51686;SDS011;37774;52.192;4.584;2022-07-03T01:20:06;8.10;;;3.85;;
51686;SDS011;37774;52.192;4.584;2022-07-03T01:22:34;9.57;;;3.78;;
51686;SDS011;37774;52.192;4.584;2022-07-03T01:25:06;8.43;;;3.97;;
51686;SDS011;37774;52.192;4.584;2022-07-03T01:27:47;5.80;;;3.88;;
51686;SDS011;37774;52.192;4.584;2022-07-03T01:30:23;10.27;;;3.90;;
51686;SDS011;37774;52.192;4.584;2022-07-03T01:32:53;6.95;;;3.45;;
51686;SDS011;37774;52.192;4.584;2022-07-03T01:35:26;12.82;;;3.10;;
51686;SDS011;37774;52.192;4.584;2022-07-03T01:37:54;9.32;;;3.45;;
51686;SDS011;37774;52.192;4.584;2022-07-03T01:40:23;7.55;;;3.00;;
51686;SDS011;37774;52.192;4.584;2022-07-03T01:42:51;6.88;;;3.50;;
51686;SDS011;37774;52.192;4.584;2022-07-03T01:45:19;4.55;;;2.90;;
51686;SDS011;37774;52.192;4.584;2022-07-03T01:47:47;5.90;;;2.72;;
51686;SDS011;37774;52.192;4.584;2022-07-03T01:50:15;6.18;;;2.90;;
51686;SDS011;37774;52.192;4.584;2022-07-03T01:52:43;7.53;;;3.58;;
51686;SDS011;37774;52.192;4.584;2022-07-03T01:55:14;5.60;;;2.97;;
51686;SDS011;37774;52.192;4.584;2022-07-03T01:57:42;6.28;;;3.53;;
51686;SDS011;37774;52.192;4.584;2022-07-03T02:00:12;5.38;;;3.30;;
51686;SDS011;37774;52.192;4.584;2022-07-03T02:02:42;6.50;;;3.47;;
51686;SDS011;37774;52.192;4.584;2022-07-03T02:05:14;7.32;;;3.05;;
51686;SDS011;37774;52.192;4.584;2022-07-03T02:07:55;6.45;;;2.72;;
51686;SDS011;37774;52.192;4.584;2022-07-03T02:10:29;6.32;;;2.90;;
51686;SDS011;37774;52.192;4.584;2022-07-03T02:13:01;4.93;;;2.38;;
51686;SDS011;37774;52.192;4.584;2022-07-03T02:15:34;3.28;;;2.50;;
51686;SDS011;37774;52.192;4.584;2022-07-03T02:18:04;6.13;;;2.63;;
51686;SDS011;37774;52.192;4.584;2022-07-03T02:20:37;5.80;;;2.47;;
51686;SDS011;37774;52.192;4.584;2022-07-03T02:23:10;4.22;;;2.53;;
51686;SDS011;37774;52.192;4.584;2022-07-03T02:25:39;9.65;;;3.17;;
51686;SDS011;37774;52.192;4.584;2022-07-03T02:28:12;5.18;;;2.58;;
51686;SDS011;37774;52.192;4.584;2022-07-03T02:30:51;3.40;;;2.55;;
51686;SDS011;37774;52.192;4.584;2022-07-03T02:33:24;8.70;;;3.13;;
51686;SDS011;37774;52.192;4.584;2022-07-03T02:35:53;6.80;;;3.20;;
51686;SDS011;37774;52.192;4.584;2022-07-03T02:38:21;5.20;;;2.83;;
51686;SDS011;37774;52.192;4.584;2022-07-03T02:40:56;5.00;;;2.90;;
51686;SDS011;37774;52.192;4.584;2022-07-03T02:43:31;6.40;;;2.40;;
51686;SDS011;37774;52.192;4.584;2022-07-03T02:46:05;5.20;;;2.47;;
51686;SDS011;37774;52.192;4.584;2022-07-03T02:48:51;7.68;;;3.10;;
51686;SDS011;37774;52.192;4.584;2022-07-03T02:51:37;3.92;;;2.25;;
51686;SDS011;37774;52.192;4.584;2022-07-03T02:54:12;4.47;;;2.67;;
51686;SDS011;37774;52.192;4.584;2022-07-03T02:56:43;9.30;;;2.97;;
51686;SDS011;37774;52.192;4.584;2022-07-03T02:59:32;4.43;;;2.70;;
51686;SDS011;37774;52.192;4.584;2022-07-03T03:02:13;7.22;;;2.25;;
51686;SDS011;37774;52.192;4.584;2022-07-03T03:04:52;7.97;;;2.67;;
51686;SDS011;37774;52.192;4.584;2022-07-03T03:07:26;2.65;;;2.15;;
51686;SDS011;37774;52.192;4.584;2022-07-03T03:09:59;2.85;;;2.53;;
51686;SDS011;37774;52.192;4.584;2022-07-03T03:12:28;3.25;;;2.05;;
51686;SDS011;37774;52.192;4.584;2022-07-03T03:15:00;2.45;;;1.88;;
51686;SDS011;37774;52.192;4.584;2022-07-03T03:17:34;5.65;;;2.10;;
51686;SDS011;37774;52.192;4.584;2022-07-03T03:20:06;5.38;;;1.92;;
51686;SDS011;37774;52.192;4.584;2022-07-03T03:22:39;6.60;;;2.53;;
51686;SDS011;37774;52.192;4.584;2022-07-03T03:25:20;5.43;;;2.22;;
51686;SDS011;37774;52.192;4.584;2022-07-03T03:27:47;6.55;;;2.33;;
51686;SDS011;37774;52.192;4.584;2022-07-03T03:30:14;4.93;;;1.40;;
51686;SDS011;37774;52.192;4.584;2022-07-03T03:32:42;9.90;;;1.65;;
51686;SDS011;37774;52.192;4.584;2022-07-03T03:35:10;4.70;;;1.48;;
51686;SDS011;37774;52.192;4.584;2022-07-03T03:37:37;3.40;;;1.52;;
51686;SDS011;37774;52.192;4.584;2022-07-03T03:40:04;4.07;;;1.50;;
51686;SDS011;37774;52.192;4.584;2022-07-03T03:42:32;2.47;;;1.52;;
51686;SDS011;37774;52.192;4.584;2022-07-03T03:44:58;5.53;;;1.58;;
51686;SDS011;37774;52.192;4.584;2022-07-03T03:47:25;7.93;;;2.70;;
51686;SDS011;37774;52.192;4.584;2022-07-03T03:49:53;7.50;;;1.63;;
51686;SDS011;37774;52.192;4.584;2022-07-03T03:52:20;3.50;;;1.40;;
51686;SDS011;37774;52.192;4.584;2022-07-03T03:54:47;5.25;;;1.20;;
51686;SDS011;37774;52.192;4.584;2022-07-03T03:57:14;2.42;;;0.88;;
51686;SDS011;37774;52.192;4.584;2022-07-03T03:59:42;10.77;;;1.27;;
51686;SDS011;37774;52.192;4.584;2022-07-03T04:02:09;8.50;;;1.27;;
51686;SDS011;37774;52.192;4.584;2022-07-03T04:04:36;11.63;;;1.90;;
51686;SDS011;37774;52.192;4.584;2022-07-03T04:07:04;2.15;;;1.25;;
51686;SDS011;37774;52.192;4.584;2022-07-03T04:09:31;7.90;;;1.13;;
51686;SDS011;37774;52.192;4.584;2022-07-03T04:11:58;4.78;;;0.95;;
51686;SDS011;37774;52.192;4.584;2022-07-03T04:14:25;9.15;;;1.38;;
51686;SDS011;37774;52.192;4.584;2022-07-03T04:16:52;2.50;;;1.05;;
51686;SDS011;37774;52.192;4.584;2022-07-03T04:19:18;6.40;;;1.02;;
51686;SDS011;37774;52.192;4.584;2022-07-03T04:21:45;4.80;;;1.35;;
51686;SDS011;37774;52.192;4.584;2022-07-03T04:24:13;6.60;;;1.10;;
51686;SDS011;37774;52.192;4.584;2022-07-03T04:26:40;3.03;;;1.00;;
51686;SDS011;37774;52.192;4.584;2022-07-03T04:29:07;2.50;;;0.85;;
51686;SDS011;37774;52.192;4.584;2022-07-03T04:31:34;15.60;;;2.25;;
51686;SDS011;37774;52.192;4.584;2022-07-03T04:34:01;8.30;;;1.38;;
51686;SDS011;37774;52.192;4.584;2022-07-03T04:36:27;5.72;;;1.42;;
51686;SDS011;37774;52.192;4.584;2022-07-03T04:38:54;7.03;;;1.67;;
51686;SDS011;37774;52.192;4.584;2022-07-03T04:41:22;4.95;;;0.77;;
51686;SDS011;37774;52.192;4.584;2022-07-03T04:43:49;14.32;;;1.30;;
51686;SDS011;37774;52.192;4.584;2022-07-03T04:46:16;5.90;;;1.30;;
51686;SDS011;37774;52.192;4.584;2022-07-03T04:48:43;11.65;;;1.38;;
51686;SDS011;37774;52.192;4.584;2022-07-03T04:51:11;1.73;;;0.70;;
51686;SDS011;37774;52.192;4.584;2022-07-03T04:53:37;5.85;;;1.33;;
51686;SDS011;37774;52.192;4.584;2022-07-03T04:56:04;4.82;;;0.98;;
51686;SDS011;37774;52.192;4.584;2022-07-03T04:58:32;6.95;;;1.27;;
51686;SDS011;37774;52.192;4.584;2022-07-03T05:00:59;8.32;;;1.50;;
51686;SDS011;37774;52.192;4.584;2022-07-03T05:03:27;4.97;;;1.27;;
51686;SDS011;37774;52.192;4.584;2022-07-03T05:05:54;5.32;;;1.38;;
51686;SDS011;37774;52.192;4.584;2022-07-03T05:08:21;7.35;;;1.27;;
51686;SDS011;37774;52.192;4.584;2022-07-03T05:10:47;7.20;;;1.23;;
51686;SDS011;37774;52.192;4.584;2022-07-03T05:13:14;5.93;;;1.73;;
51686;SDS011;37774;52.192;4.584;2022-07-03T05:15:42;8.63;;;1.48;;
51686;SDS011;37774;52.192;4.584;2022-07-03T05:18:09;6.45;;;1.63;;
51686;SDS011;37774;52.192;4.584;2022-07-03T05:20:36;8.90;;;1.85;;
51686;SDS011;37774;52.192;4.584;2022-07-03T05:23:03;5.43;;;1.20;;
51686;SDS011;37774;52.192;4.584;2022-07-03T05:25:30;14.52;;;1.65;;
51686;SDS011;37774;52.192;4.584;2022-07-03T05:27:58;2.83;;;1.00;;
51686;SDS011;37774;52.192;4.584;2022-07-03T05:30:25;7.00;;;1.27;;
51686;SDS011;37774;52.192;4.584;2022-07-03T05:32:53;4.65;;;0.98;;
51686;SDS011;37774;52.192;4.584;2022-07-03T05:35:20;3.90;;;1.30;;
51686;SDS011;37774;52.192;4.584;2022-07-03T05:37:47;6.43;;;1.25;;
51686;SDS011;37774;52.192;4.584;2022-07-03T05:40:14;13.63;;;1.73;;
51686;SDS011;37774;52.192;4.584;2022-07-03T05:42:41;10.20;;;2.47;;
51686;SDS011;37774;52.192;4.584;2022-07-03T05:45:08;6.20;;;1.27;;
51686;SDS011;37774;52.192;4.584;2022-07-03T05:47:35;10.98;;;1.52;;
51686;SDS011;37774;52.192;4.584;2022-07-03T05:50:04;5.78;;;1.35;;
51686;SDS011;37774;52.192;4.584;2022-07-03T05:52:31;12.93;;;1.33;;
51686;SDS011;37774;52.192;4.584;2022-07-03T05:54:58;10.27;;;1.42;;
51686;SDS011;37774;52.192;4.584;2022-07-03T05:57:25;5.10;;;1.45;;
51686;SDS011;37774;52.192;4.584;2022-07-03T05:59:51;4.68;;;1.40;;
51686;SDS011;37774;52.192;4.584;2022-07-03T06:02:18;7.18;;;1.48;;
51686;SDS011;37774;52.192;4.584;2022-07-03T06:04:45;8.52;;;2.20;;
51686;SDS011;37774;52.192;4.584;2022-07-03T06:07:13;7.38;;;1.83;;
51686;SDS011;37774;52.192;4.584;2022-07-03T06:09:41;4.95;;;1.20;;
51686;SDS011;37774;52.192;4.584;2022-07-03T06:12:08;6.43;;;1.65;;
51686;SDS011;37774;52.192;4.584;2022-07-03T06:14:35;13.80;;;1.52;;
51686;SDS011;37774;52.192;4.584;2022-07-03T06:17:02;5.22;;;1.02;;
51686;SDS011;37774;52.192;4.584;2022-07-03T06:19:30;10.43;;;1.40;;
51686;SDS011;37774;52.192;4.584;2022-07-03T06:21:56;7.57;;;1.23;;
51686;SDS011;37774;52.192;4.584;2022-07-03T06:24:25;6.03;;;1.27;;
51686;SDS011;37774;52.192;4.584;2022-07-03T06:26:51;6.82;;;1.25;;
51686;SDS011;37774;52.192;4.584;2022-07-03T06:29:18;8.57;;;1.48;;
51686;SDS011;37774;52.192;4.584;2022-07-03T06:31:45;2.35;;;1.00;;
51686;SDS011;37774;52.192;4.584;2022-07-03T06:34:11;7.93;;;1.27;;
51686;SDS011;37774;52.192;4.584;2022-07-03T06:36:38;12.25;;;1.20;;
51686;SDS011;37774;52.192;4.584;2022-07-03T06:39:05;5.95;;;1.20;;
51686;SDS011;37774;52.192;4.584;2022-07-03T06:41:33;6.68;;;1.33;;
51686;SDS011;37774;52.192;4.584;2022-07-03T06:44:00;6.20;;;1.02;;
51686;SDS011;37774;52.192;4.584;2022-07-03T06:46:27;5.68;;;1.08;;
51686;SDS011;37774;52.192;4.584;2022-07-03T06:48:53;8.63;;;1.55;;
51686;SDS011;37774;52.192;4.584;2022-07-03T06:51:20;4.43;;;1.35;;
51686;SDS011;37774;52.192;4.584;2022-07-03T06:53:47;10.00;;;1.15;;
51686;SDS011;37774;52.192;4.584;2022-07-03T06:56:14;6.70;;;0.95;;
51686;SDS011;37774;52.192;4.584;2022-07-03T06:58:42;5.93;;;1.30;;
51686;SDS011;37774;52.192;4.584;2022-07-03T07:01:09;3.45;;;1.00;;
51686;SDS011;37774;52.192;4.584;2022-07-03T07:03:35;11.45;;;1.17;;
51686;SDS011;37774;52.192;4.584;2022-07-03T07:06:02;7.85;;;1.05;;
51686;SDS011;37774;52.192;4.584;2022-07-03T07:08:29;4.13;;;0.68;;
51686;SDS011;37774;52.192;4.584;2022-07-03T07:10:56;10.45;;;1.42;;
51686;SDS011;37774;52.192;4.584;2022-07-03T07:13:23;5.05;;;1.30;;
51686;SDS011;37774;52.192;4.584;2022-07-03T07:15:51;5.40;;;2.05;;
51686;SDS011;37774;52.192;4.584;2022-07-03T07:18:18;6.78;;;1.27;;
51686;SDS011;37774;52.192;4.584;2022-07-03T07:20:45;6.70;;;1.77;;
51686;SDS011;37774;52.192;4.584;2022-07-03T07:23:11;2.10;;;0.80;;
51686;SDS011;37774;52.192;4.584;2022-07-03T07:25:38;2.60;;;0.80;;
51686;SDS011;37774;52.192;4.584;2022-07-03T07:28:05;6.45;;;1.10;;
51686;SDS011;37774;52.192;4.584;2022-07-03T07:30:32;2.75;;;1.23;;
51686;SDS011;37774;52.192;4.584;2022-07-03T07:33:00;8.23;;;1.75;;
51686;SDS011;37774;52.192;4.584;2022-07-03T07:35:27;3.70;;;1.30;;
51686;SDS011;37774;52.192;4.584;2022-07-03T07:37:53;8.77;;;1.15;;
51686;SDS011;37774;52.192;4.584;2022-07-03T07:40:20;6.15;;;1.40;;
51686;SDS011;37774;52.192;4.584;2022-07-03T07:42:47;4.10;;;1.00;;
51686;SDS011;37774;52.192;4.584;2022-07-03T07:45:14;8.75;;;0.75;;
51686;SDS011;37774;52.192;4.584;2022-07-03T07:47:41;3.72;;;1.05;;
51686;SDS011;37774;52.192;4.584;2022-07-03T07:50:09;6.97;;;1.10;;
51686;SDS011;37774;52.192;4.584;2022-07-03T07:52:36;5.05;;;0.85;;
51686;SDS011;37774;52.192;4.584;2022-07-03T07:55:03;1.88;;;0.80;;
51686;SDS011;37774;52.192;4.584;2022-07-03T07:57:34;5.97;;;0.90;;
51686;SDS011;37774;52.192;4.584;2022-07-03T08:00:05;3.03;;;1.25;;
51686;SDS011;37774;52.192;4.584;2022-07-03T08:02:33;2.40;;;1.08;;
51686;SDS011;37774;52.192;4.584;2022-07-03T08:05:21;3.88;;;0.93;;
51686;SDS011;37774;52.192;4.584;2022-07-03T08:08:03;9.68;;;1.20;;
51686;SDS011;37774;52.192;4.584;2022-07-03T08:10:34;7.05;;;0.88;;
51686;SDS011;37774;52.192;4.584;2022-07-03T08:13:02;6.78;;;1.38;;
51686;SDS011;37774;52.192;4.584;2022-07-03T08:15:29;4.65;;;1.00;;
51686;SDS011;37774;52.192;4.584;2022-07-03T08:17:56;1.65;;;0.70;;
51686;SDS011;37774;52.192;4.584;2022-07-03T08:20:24;2.03;;;0.90;;
51686;SDS011;37774;52.192;4.584;2022-07-03T08:22:51;1.48;;;0.90;;
51686;SDS011;37774;52.192;4.584;2022-07-03T08:25:18;1.45;;;0.55;;
51686;SDS011;37774;52.192;4.584;2022-07-03T08:27:44;3.47;;;0.82;;
51686;SDS011;37774;52.192;4.584;2022-07-03T08:30:11;2.67;;;1.15;;
51686;SDS011;37774;52.192;4.584;2022-07-03T08:32:42;7.20;;;1.15;;
51686;SDS011;37774;52.192;4.584;2022-07-03T08:35:09;2.78;;;1.10;;
51686;SDS011;37774;52.192;4.584;2022-07-03T08:37:38;3.35;;;0.80;;
51686;SDS011;37774;52.192;4.584;2022-07-03T08:40:08;2.08;;;0.45;;
51686;SDS011;37774;52.192;4.584;2022-07-03T08:42:36;5.05;;;0.90;;
51686;SDS011;37774;52.192;4.584;2022-07-03T08:45:05;5.82;;;0.80;;
51686;SDS011;37774;52.192;4.584;2022-07-03T08:47:34;1.90;;;0.75;;
51686;SDS011;37774;52.192;4.584;2022-07-03T08:50:02;1.85;;;0.60;;
51686;SDS011;37774;52.192;4.584;2022-07-03T08:52:30;3.10;;;0.60;;
51686;SDS011;37774;52.192;4.584;2022-07-03T08:54:59;4.85;;;0.63;;
51686;SDS011;37774;52.192;4.584;2022-07-03T08:57:26;1.35;;;0.63;;
51686;SDS011;37774;52.192;4.584;2022-07-03T08:59:53;1.10;;;0.60;;
51686;SDS011;37774;52.192;4.584;2022-07-03T09:02:21;2.92;;;1.00;;
51686;SDS011;37774;52.192;4.584;2022-07-03T09:04:49;2.15;;;0.63;;
51686;SDS011;37774;52.192;4.584;2022-07-03T09:07:17;1.73;;;0.80;;
51686;SDS011;37774;52.192;4.584;2022-07-03T09:09:45;0.73;;;0.57;;
51686;SDS011;37774;52.192;4.584;2022-07-03T09:12:13;4.90;;;0.50;;
51686;SDS011;37774;52.192;4.584;2022-07-03T09:14:40;4.53;;;0.50;;
51686;SDS011;37774;52.192;4.584;2022-07-03T09:17:07;2.13;;;0.70;;
51686;SDS011;37774;52.192;4.584;2022-07-03T09:19:39;6.22;;;0.73;;
51686;SDS011;37774;52.192;4.584;2022-07-03T09:24:50;1.83;;;0.70;;
51686;SDS011;37774;52.192;4.584;2022-07-03T09:27:23;0.77;;;0.55;;
51686;SDS011;37774;52.192;4.584;2022-07-03T09:29:51;2.78;;;0.80;;
51686;SDS011;37774;52.192;4.584;2022-07-03T09:32:25;5.60;;;0.50;;
51686;SDS011;37774;52.192;4.584;2022-07-03T09:35:09;3.80;;;0.68;;
51686;SDS011;37774;52.192;4.584;2022-07-03T09:37:40;2.00;;;0.43;;
51686;SDS011;37774;52.192;4.584;2022-07-03T09:40:07;1.80;;;0.43;;
51686;SDS011;37774;52.192;4.584;2022-07-03T09:42:36;2.15;;;0.65;;
51686;SDS011;37774;52.192;4.584;2022-07-03T09:45:03;1.02;;;0.40;;
51686;SDS011;37774;52.192;4.584;2022-07-03T09:47:31;1.63;;;0.60;;
51686;SDS011;37774;52.192;4.584;2022-07-03T09:49:58;3.28;;;0.60;;
51686;SDS011;37774;52.192;4.584;2022-07-03T09:52:31;4.82;;;0.85;;
51686;SDS011;37774;52.192;4.584;2022-07-03T09:55:01;3.17;;;0.35;;
51686;SDS011;37774;52.192;4.584;2022-07-03T09:57:39;1.13;;;0.40;;
51686;SDS011;37774;52.192;4.584;2022-07-03T10:00:10;0.63;;;0.50;;
51686;SDS011;37774;52.192;4.584;2022-07-03T10:02:52;3.30;;;0.65;;
51686;SDS011;37774;52.192;4.584;2022-07-03T10:05:23;1.58;;;0.60;;
51686;SDS011;37774;52.192;4.584;2022-07-03T10:07:55;1.17;;;0.60;;
51686;SDS011;37774;52.192;4.584;2022-07-03T10:10:23;1.50;;;0.55;;
51686;SDS011;37774;52.192;4.584;2022-07-03T10:12:52;1.77;;;0.55;;
51686;SDS011;37774;52.192;4.584;2022-07-03T10:15:21;2.50;;;0.20;;
51686;SDS011;37774;52.192;4.584;2022-07-03T10:17:50;7.13;;;0.80;;
51686;SDS011;37774;52.192;4.584;2022-07-03T10:20:20;0.85;;;0.50;;
51686;SDS011;37774;52.192;4.584;2022-07-03T10:22:51;1.45;;;0.52;;
51686;SDS011;37774;52.192;4.584;2022-07-03T10:25:18;0.73;;;0.50;;
51686;SDS011;37774;52.192;4.584;2022-07-03T10:27:45;2.75;;;0.52;;
51686;SDS011;37774;52.192;4.584;2022-07-03T10:30:15;2.17;;;0.30;;
51686;SDS011;37774;52.192;4.584;2022-07-03T10:32:44;1.05;;;0.45;;
51686;SDS011;37774;52.192;4.584;2022-07-03T10:35:13;2.03;;;0.32;;
51686;SDS011;37774;52.192;4.584;2022-07-03T10:37:43;1.80;;;0.40;;
51686;SDS011;37774;52.192;4.584;2022-07-03T10:40:24;2.25;;;0.20;;
51686;SDS011;37774;52.192;4.584;2022-07-03T10:43:18;1.60;;;0.60;;
51686;SDS011;37774;52.192;4.584;2022-07-03T10:46:10;3.33;;;0.50;;
51686;SDS011;37774;52.192;4.584;2022-07-03T10:48:51;2.45;;;0.52;;
51686;SDS011;37774;52.192;4.584;2022-07-03T10:51:22;0.30;;;0.30;;
51686;SDS011;37774;52.192;4.584;2022-07-03T10:53:50;3.92;;;0.32;;
51686;SDS011;37774;52.192;4.584;2022-07-03T10:59:19;1.85;;;0.50;;
51686;SDS011;37774;52.192;4.584;2022-07-03T11:01:47;0.50;;;0.40;;
51686;SDS011;37774;52.192;4.584;2022-07-03T11:04:13;4.10;;;0.38;;
51686;SDS011;37774;52.192;4.584;2022-07-03T11:09:35;1.00;;;0.40;;
51686;SDS011;37774;52.192;4.584;2022-07-03T11:12:02;1.33;;;0.28;;
51686;SDS011;37774;52.192;4.584;2022-07-03T11:14:29;4.68;;;0.35;;
51686;SDS011;37774;52.192;4.584;2022-07-03T11:17:17;1.33;;;0.70;;
51686;SDS011;37774;52.192;4.584;2022-07-03T11:19:44;8.95;;;0.75;;
51686;SDS011;37774;52.192;4.584;2022-07-03T11:22:35;0.85;;;0.25;;
51686;SDS011;37774;52.192;4.584;2022-07-03T11:25:11;1.50;;;0.50;;
51686;SDS011;37774;52.192;4.584;2022-07-03T11:27:39;3.28;;;0.50;;
51686;SDS011;37774;52.192;4.584;2022-07-03T11:30:06;1.63;;;0.70;;
51686;SDS011;37774;52.192;4.584;2022-07-03T11:35:50;1.70;;;0.30;;
51686;SDS011;37774;52.192;4.584;2022-07-03T11:38:20;2.78;;;0.80;;
51686;SDS011;37774;52.192;4.584;2022-07-03T11:40:50;1.98;;;0.20;;
51686;SDS011;37774;52.192;4.584;2022-07-03T11:43:18;2.58;;;0.65;;
51686;SDS011;37774;52.192;4.584;2022-07-03T11:45:46;1.77;;;0.40;;
51686;SDS011;37774;52.192;4.584;2022-07-03T11:48:15;1.88;;;0.32;;
51686;SDS011;37774;52.192;4.584;2022-07-03T11:50:44;0.75;;;0.30;;
51686;SDS011;37774;52.192;4.584;2022-07-03T11:53:18;2.17;;;0.60;;
51686;SDS011;37774;52.192;4.584;2022-07-03T11:55:50;3.67;;;0.50;;
51686;SDS011;37774;52.192;4.584;2022-07-03T11:58:19;5.25;;;0.90;;
51686;SDS011;37774;52.192;4.584;2022-07-03T12:00:47;1.00;;;0.40;;
51686;SDS011;37774;52.192;4.584;2022-07-03T12:03:20;4.95;;;0.45;;
51686;SDS011;37774;52.192;4.584;2022-07-03T12:05:55;5.80;;;0.60;;
51686;SDS011;37774;52.192;4.584;2022-07-03T12:08:28;2.92;;;0.70;;
51686;SDS011;37774;52.192;4.584;2022-07-03T12:10:57;0.60;;;0.50;;
51686;SDS011;37774;52.192;4.584;2022-07-03T12:13:25;1.50;;;0.30;;
51686;SDS011;37774;52.192;4.584;2022-07-03T12:15:53;1.75;;;0.70;;
51686;SDS011;37774;52.192;4.584;2022-07-03T12:18:21;4.65;;;0.77;;
51686;SDS011;37774;52.192;4.584;2022-07-03T12:20:48;3.55;;;0.73;;
51686;SDS011;37774;52.192;4.584;2022-07-03T12:23:15;3.45;;;0.80;;
51686;SDS011;37774;52.192;4.584;2022-07-03T12:25:42;1.90;;;0.30;;
51686;SDS011;37774;52.192;4.584;2022-07-03T12:28:09;5.47;;;0.70;;
51686;SDS011;37774;52.192;4.584;2022-07-03T12:30:36;4.57;;;0.75;;
51686;SDS011;37774;52.192;4.584;2022-07-03T12:33:04;3.35;;;0.60;;
51686;SDS011;37774;52.192;4.584;2022-07-03T12:35:34;2.55;;;0.70;;
51686;SDS011;37774;52.192;4.584;2022-07-03T12:38:01;8.25;;;0.70;;
51686;SDS011;37774;52.192;4.584;2022-07-03T12:40:28;2.40;;;0.57;;
51686;SDS011;37774;52.192;4.584;2022-07-03T12:42:55;1.38;;;0.52;;
51686;SDS011;37774;52.192;4.584;2022-07-03T12:45:24;1.33;;;0.40;;
51686;SDS011;37774;52.192;4.584;2022-07-03T12:47:58;2.20;;;1.00;;
51686;SDS011;37774;52.192;4.584;2022-07-03T12:50:26;3.60;;;0.60;;
51686;SDS011;37774;52.192;4.584;2022-07-03T12:53:11;2.30;;;0.68;;
51686;SDS011;37774;52.192;4.584;2022-07-03T12:55:52;3.53;;;0.50;;
51686;SDS011;37774;52.192;4.584;2022-07-03T12:58:22;3.53;;;0.70;;
51686;SDS011;37774;52.192;4.584;2022-07-03T13:01:06;4.85;;;0.75;;
51686;SDS011;37774;52.192;4.584;2022-07-03T13:03:49;2.90;;;0.75;;
51686;SDS011;37774;52.192;4.584;2022-07-03T13:06:16;3.33;;;0.85;;
51686;SDS011;37774;52.192;4.584;2022-07-03T13:08:53;3.75;;;0.70;;
51686;SDS011;37774;52.192;4.584;2022-07-03T13:11:31;4.55;;;0.90;;
51686;SDS011;37774;52.192;4.584;2022-07-03T13:14:03;3.78;;;1.25;;
51686;SDS011;37774;52.192;4.584;2022-07-03T13:16:35;1.50;;;0.80;;
51686;SDS011;37774;52.192;4.584;2022-07-03T13:19:10;2.80;;;0.90;;
51686;SDS011;37774;52.192;4.584;2022-07-03T13:21:38;6.63;;;1.05;;
51686;SDS011;37774;52.192;4.584;2022-07-03T13:24:07;8.68;;;0.77;;
51686;SDS011;37774;52.192;4.584;2022-07-03T13:26:34;4.53;;;1.08;;
51686;SDS011;37774;52.192;4.584;2022-07-03T13:29:01;4.43;;;1.15;;
51686;SDS011;37774;52.192;4.584;2022-07-03T13:31:28;2.60;;;0.98;;
51686;SDS011;37774;52.192;4.584;2022-07-03T13:33:55;10.02;;;0.90;;
51686;SDS011;37774;52.192;4.584;2022-07-03T13:36:23;4.30;;;1.10;;
51686;SDS011;37774;52.192;4.584;2022-07-03T13:38:50;3.75;;;1.10;;
51686;SDS011;37774;52.192;4.584;2022-07-03T13:41:18;1.27;;;0.82;;
51686;SDS011;37774;52.192;4.584;2022-07-03T13:43:46;2.53;;;1.15;;
51686;SDS011;37774;52.192;4.584;2022-07-03T13:46:14;2.83;;;0.95;;
51686;SDS011;37774;52.192;4.584;2022-07-03T13:48:41;2.88;;;1.10;;
51686;SDS011;37774;52.192;4.584;2022-07-03T13:51:08;3.28;;;0.90;;
51686;SDS011;37774;52.192;4.584;2022-07-03T13:53:34;5.22;;;1.10;;
51686;SDS011;37774;52.192;4.584;2022-07-03T13:56:01;4.25;;;1.10;;
51686;SDS011;37774;52.192;4.584;2022-07-03T13:58:30;1.92;;;0.95;;
51686;SDS011;37774;52.192;4.584;2022-07-03T14:00:57;1.80;;;0.90;;
51686;SDS011;37774;52.192;4.584;2022-07-03T14:03:26;4.70;;;1.02;;
51686;SDS011;37774;52.192;4.584;2022-07-03T14:05:53;3.53;;;1.00;;
51686;SDS011;37774;52.192;4.584;2022-07-03T14:08:21;5.63;;;1.05;;
51686;SDS011;37774;52.192;4.584;2022-07-03T14:10:48;11.68;;;2.90;;
51686;SDS011;37774;52.192;4.584;2022-07-03T14:13:14;2.63;;;0.90;;
51686;SDS011;37774;52.192;4.584;2022-07-03T14:15:43;3.92;;;1.50;;
51686;SDS011;37774;52.192;4.584;2022-07-03T14:18:10;6.15;;;1.50;;
51686;SDS011;37774;52.192;4.584;2022-07-03T14:20:36;5.57;;;1.02;;
51686;SDS011;37774;52.192;4.584;2022-07-03T14:23:03;2.25;;;0.80;;
51686;SDS011;37774;52.192;4.584;2022-07-03T14:25:30;2.78;;;0.93;;
51686;SDS011;37774;52.192;4.584;2022-07-03T14:27:57;3.95;;;0.80;;
51686;SDS011;37774;52.192;4.584;2022-07-03T14:30:42;3.60;;;1.17;;
51686;SDS011;37774;52.192;4.584;2022-07-03T14:33:26;2.17;;;0.65;;
51686;SDS011;37774;52.192;4.584;2022-07-03T14:35:53;3.70;;;0.95;;
51686;SDS011;37774;52.192;4.584;2022-07-03T14:38:20;6.72;;;1.08;;
51686;SDS011;37774;52.192;4.584;2022-07-03T14:40:47;5.25;;;1.10;;
51686;SDS011;37774;52.192;4.584;2022-07-03T14:43:14;3.72;;;1.17;;
51686;SDS011;37774;52.192;4.584;2022-07-03T14:45:40;7.43;;;1.08;;
51686;SDS011;37774;52.192;4.584;2022-07-03T14:48:08;3.75;;;1.10;;
51686;SDS011;37774;52.192;4.584;2022-07-03T14:50:35;12.63;;;1.60;;
51686;SDS011;37774;52.192;4.584;2022-07-03T14:53:04;4.55;;;0.80;;
51686;SDS011;37774;52.192;4.584;2022-07-03T14:55:35;6.70;;;1.48;;
51686;SDS011;37774;52.192;4.584;2022-07-03T14:58:05;3.58;;;0.93;;
51686;SDS011;37774;52.192;4.584;2022-07-03T15:00:40;6.68;;;1.17;;
51686;SDS011;37774;52.192;4.584;2022-07-03T15:03:12;5.35;;;0.80;;
51686;SDS011;37774;52.192;4.584;2022-07-03T15:05:43;5.32;;;1.25;;
51686;SDS011;37774;52.192;4.584;2022-07-03T15:08:26;3.55;;;0.60;;
51686;SDS011;37774;52.192;4.584;2022-07-03T15:11:05;5.07;;;0.90;;
51686;SDS011;37774;52.192;4.584;2022-07-03T15:13:34;7.07;;;1.23;;